createdAt,value
2023-03-21T00:01:38.363Z,32.17
2023-03-21T00:04:05.703Z,30.52
2023-03-21T00:06:32.918Z,29.30
2023-03-21T00:08:59.929Z,38.53
2023-03-21T00:11:26.809Z,31.63
2023-03-21T00:13:58.422Z,33.40
2023-03-21T00:16:31.270Z,30.85
2023-03-21T00:19:03.237Z,31.77
2023-03-21T00:22:03.721Z,31.70
2023-03-21T00:24:19.399Z,27.80
2023-03-21T00:26:47.501Z,46.92
2023-03-21T00:29:14.586Z,23.55
2023-03-21T00:31:41.629Z,23.27
2023-03-21T00:34:09.360Z,28.30
2023-03-21T00:36:37.297Z,32.58
2023-03-21T00:39:06.246Z,30.20
2023-03-21T00:41:48.387Z,39.53
2023-03-21T00:44:15.873Z,38.40
2023-03-21T00:46:51.666Z,40.97
2023-03-21T00:49:21.642Z,52.75
2023-03-21T00:51:52.067Z,70.93
2023-03-21T00:54:19.766Z,53.20
2023-03-21T00:56:46.746Z,57.88
2023-03-21T00:59:14.020Z,73.97
2023-03-21T01:01:40.991Z,107.95
2023-03-21T01:04:13.593Z,119.03
2023-03-21T01:06:44.408Z,146.48
2023-03-21T01:09:23.556Z,125.68
2023-03-21T01:11:51.007Z,106.70
2023-03-21T01:14:23.344Z,145.32
2023-03-21T01:16:54.395Z,124.45
2023-03-21T01:19:41.053Z,117.85
2023-03-21T01:22:16.456Z,137.18
2023-03-21T01:24:53.850Z,145.68
2023-03-21T01:27:22.320Z,150.60
2023-03-21T01:29:49.317Z,145.27
2023-03-21T01:32:16.807Z,111.63
2023-03-21T01:34:43.713Z,101.97
2023-03-21T01:37:10.823Z,120.90
2023-03-21T01:39:37.753Z,98.28
2023-03-21T01:42:04.826Z,84.40
2023-03-21T01:44:32.034Z,76.07
2023-03-21T01:47:10.633Z,85.95
2023-03-21T01:49:48.663Z,70.63
2023-03-21T01:52:35.898Z,65.60
2023-03-21T01:55:13.356Z,85.28
2023-03-21T01:58:02.406Z,60.75
2023-03-21T02:00:32.677Z,68.07
2023-03-21T02:03:11.511Z,77.70
2023-03-21T02:06:01.520Z,70.70
2023-03-21T02:08:39.652Z,65.90
2023-03-21T02:11:10.023Z,59.45
2023-03-21T02:13:37.588Z,67.43
2023-03-21T02:16:10.459Z,62.10
2023-03-21T02:18:49.527Z,60.70
2023-03-21T02:21:35.182Z,62.00
2023-03-21T02:24:08.019Z,62.72
2023-03-21T02:27:08.986Z,56.53
2023-03-21T02:29:58.192Z,57.72
2023-03-21T02:32:38.288Z,63.33
2023-03-21T02:35:08.483Z,65.15
2023-03-21T02:38:00.076Z,52.33
2023-03-21T02:40:37.970Z,65.82
2023-03-21T02:43:23.261Z,52.60
2023-03-21T02:46:18.570Z,47.13
2023-03-21T02:49:12.297Z,51.35
2023-03-21T02:51:41.786Z,47.35
2023-03-21T02:54:32.288Z,45.65
2023-03-21T02:57:04.502Z,53.40
2023-03-21T02:59:34.044Z,38.35
2023-03-21T03:02:03.071Z,43.28
2023-03-21T03:04:31.069Z,38.58
2023-03-21T03:07:19.802Z,37.30
2023-03-21T03:09:55.650Z,44.28
2023-03-21T03:12:31.404Z,34.55
2023-03-21T03:15:22.034Z,37.80
2023-03-21T03:17:51.439Z,31.25
2023-03-21T03:20:25.022Z,32.28
2023-03-21T03:22:59.669Z,34.75
2023-03-21T03:25:43.049Z,39.25
2023-03-21T03:28:13.333Z,30.88
2023-03-21T03:30:51.050Z,32.55
2023-03-21T03:33:27.074Z,28.90
2023-03-21T03:36:04.855Z,29.33
2023-03-21T03:38:35.670Z,33.05
2023-03-21T03:41:25.956Z,38.88
2023-03-21T03:43:58.044Z,39.83
2023-03-21T03:46:33.439Z,35.10
2023-03-21T03:49:20.401Z,34.33
2023-03-21T03:51:59.827Z,35.15
2023-03-21T03:54:36.456Z,33.40
2023-03-21T03:57:05.097Z,32.03
2023-03-21T03:59:35.820Z,34.25
2023-03-21T04:02:03.650Z,36.65
2023-03-21T04:04:31.795Z,40.67
2023-03-21T04:06:59.176Z,32.85
2023-03-21T04:09:43.128Z,39.08
2023-03-21T04:12:12.973Z,36.83
2023-03-21T04:14:45.590Z,34.17
2023-03-21T04:17:14.808Z,39.95
2023-03-21T04:19:42.493Z,40.10
2023-03-21T04:22:09.404Z,34.45
2023-03-21T04:24:37.554Z,38.30
2023-03-21T04:27:05.942Z,30.13
